sensor_id;sensor_type;location;lat;lon;timestamp;temperature;humidity
76855;DHT22;66343;44.588;33.450;2023-01-16T00:02:29;7.65;66.08
76855;DHT22;66343;44.588;33.450;2023-01-16T00:05:21;7.65;65.41
76855;DHT22;66343;44.588;33.450;2023-01-16T00:08:11;7.64;64.74
76855;DHT22;66343;44.588;33.450;2023-01-16T00:10:54;7.64;63.02
76855;DHT22;66343;44.588;33.450;2023-01-16T00:13:43;7.59;63.00
76855;DHT22;66343;44.588;33.450;2023-01-16T00:16:27;7.60;63.06
76855;DHT22;66343;44.588;33.450;2023-01-16T00:19:12;7.59;62.95
76855;DHT22;66343;44.588;33.450;2023-01-16T00:21:55;7.61;62.25
76855;DHT22;66343;44.588;33.450;2023-01-16T00:24:37;7.61;61.59
76855;DHT22;66343;44.588;33.450;2023-01-16T00:27:25;7.62;61.64
76855;DHT22;66343;44.588;33.450;2023-01-16T00:33:05;7.70;62.97
76855;DHT22;66343;44.588;33.450;2023-01-16T00:36:00;7.70;63.35
76855;DHT22;66343;44.588;33.450;2023-01-16T00:38:55;7.69;63.66
76855;DHT22;66343;44.588;33.450;2023-01-16T00:41:41;7.69;64.14
76855;DHT22;66343;44.588;33.450;2023-01-16T00:44:13;7.71;64.11
76855;DHT22;66343;44.588;33.450;2023-01-16T00:47:09;7.75;64.20
76855;DHT22;66343;44.588;33.450;2023-01-16T00:49:52;7.77;64.04
76855;DHT22;66343;44.588;33.450;2023-01-16T00:52:38;7.78;64.29
76855;DHT22;66343;44.588;33.450;2023-01-16T00:55:31;7.83;64.11
76855;DHT22;66343;44.588;33.450;2023-01-16T00:58:17;7.85;64.12
76855;DHT22;66343;44.588;33.450;2023-01-16T01:01:05;7.86;64.05
76855;DHT22;66343;44.588;33.450;2023-01-16T01:03:50;7.88;64.06
76855;DHT22;66343;44.588;33.450;2023-01-16T01:06:44;7.90;63.63
76855;DHT22;66343;44.588;33.450;2023-01-16T01:09:34;7.97;63.89
76855;DHT22;66343;44.588;33.450;2023-01-16T01:12:25;8.04;63.72
76855;DHT22;66343;44.588;33.450;2023-01-16T01:15:08;8.05;63.74
76855;DHT22;66343;44.588;33.450;2023-01-16T01:17:55;8.09;63.69
76855;DHT22;66343;44.588;33.450;2023-01-16T01:20:48;8.11;63.53
76855;DHT22;66343;44.588;33.450;2023-01-16T01:23:31;8.07;63.61
76855;DHT22;66343;44.588;33.450;2023-01-16T01:26:19;8.06;63.82
76855;DHT22;66343;44.588;33.450;2023-01-16T01:28:52;8.09;63.85
76855;DHT22;66343;44.588;33.450;2023-01-16T01:31:44;8.06;63.82
76855;DHT22;66343;44.588;33.450;2023-01-16T01:34:35;8.07;64.21
76855;DHT22;66343;44.588;33.450;2023-01-16T01:37:21;8.09;64.20
76855;DHT22;66343;44.588;33.450;2023-01-16T01:40:04;8.08;64.34
76855;DHT22;66343;44.588;33.450;2023-01-16T01:42:52;8.11;64.34
76855;DHT22;66343;44.588;33.450;2023-01-16T01:45:39;8.14;64.38
76855;DHT22;66343;44.588;33.450;2023-01-16T01:48:30;8.15;64.40
76855;DHT22;66343;44.588;33.450;2023-01-16T01:51:33;8.14;64.65
76855;DHT22;66343;44.588;33.450;2023-01-16T01:54:20;8.06;65.01
76855;DHT22;66343;44.588;33.450;2023-01-16T01:57:32;8.06;65.17
76855;DHT22;66343;44.588;33.450;2023-01-16T02:00:24;8.07;65.27
76855;DHT22;66343;44.588;33.450;2023-01-16T02:03:19;8.08;65.25
76855;DHT22;66343;44.588;33.450;2023-01-16T02:06:17;8.05;65.54
76855;DHT22;66343;44.588;33.450;2023-01-16T02:09:04;8.07;65.82
76855;DHT22;66343;44.588;33.450;2023-01-16T02:11:55;8.07;66.00
76855;DHT22;66343;44.588;33.450;2023-01-16T02:14:41;8.09;66.04
76855;DHT22;66343;44.588;33.450;2023-01-16T02:17:38;8.11;66.09
76855;DHT22;66343;44.588;33.450;2023-01-16T02:21:14;8.13;66.12
76855;DHT22;66343;44.588;33.450;2023-01-16T02:27:40;8.14;66.40
76855;DHT22;66343;44.588;33.450;2023-01-16T02:37:24;8.18;66.67
76855;DHT22;66343;44.588;33.450;2023-01-16T02:46:40;8.19;67.03
76855;DHT22;66343;44.588;33.450;2023-01-16T02:49:41;8.16;67.04
76855;DHT22;66343;44.588;33.450;2023-01-16T02:52:43;8.18;67.20
76855;DHT22;66343;44.588;33.450;2023-01-16T02:55:39;8.14;67.46
76855;DHT22;66343;44.588;33.450;2023-01-16T02:58:33;8.13;67.68
76855;DHT22;66343;44.588;33.450;2023-01-16T03:01:26;8.14;67.97
76855;DHT22;66343;44.588;33.450;2023-01-16T03:04:45;8.09;68.13
76855;DHT22;66343;44.588;33.450;2023-01-16T03:11:12;8.14;68.21
76855;DHT22;66343;44.588;33.450;2023-01-16T03:14:19;8.13;68.23
76855;DHT22;66343;44.588;33.450;2023-01-16T03:17:21;8.16;68.25
76855;DHT22;66343;44.588;33.450;2023-01-16T03:20:41;8.17;68.29
76855;DHT22;66343;44.588;33.450;2023-01-16T03:23:56;8.19;68.42
76855;DHT22;66343;44.588;33.450;2023-01-16T03:26:48;8.21;68.31
76855;DHT22;66343;44.588;33.450;2023-01-16T03:29:44;8.26;68.26
76855;DHT22;66343;44.588;33.450;2023-01-16T03:32:45;8.34;68.22
76855;DHT22;66343;44.588;33.450;2023-01-16T03:36:06;8.45;67.65
76855;DHT22;66343;44.588;33.450;2023-01-16T03:38:42;8.47;67.39
76855;DHT22;66343;44.588;33.450;2023-01-16T03:41:18;8.45;67.50
76855;DHT22;66343;44.588;33.450;2023-01-16T03:44:24;8.45;67.73
76855;DHT22;66343;44.588;33.450;2023-01-16T03:47:25;8.46;67.54
76855;DHT22;66343;44.588;33.450;2023-01-16T03:50:23;8.50;67.20
76855;DHT22;66343;44.588;33.450;2023-01-16T03:52:58;8.51;67.17
76855;DHT22;66343;44.588;33.450;2023-01-16T03:55:39;8.53;66.98
76855;DHT22;66343;44.588;33.450;2023-01-16T03:58:28;8.55;66.92
76855;DHT22;66343;44.588;33.450;2023-01-16T04:01:16;8.56;66.89
76855;DHT22;66343;44.588;33.450;2023-01-16T04:04:31;8.51;67.10
76855;DHT22;66343;44.588;33.450;2023-01-16T04:07:12;8.48;67.20
76855;DHT22;66343;44.588;33.450;2023-01-16T04:10:12;8.50;67.19
76855;DHT22;66343;44.588;33.450;2023-01-16T04:13:10;8.52;66.98
76855;DHT22;66343;44.588;33.450;2023-01-16T04:15:58;8.44;67.60
76855;DHT22;66343;44.588;33.450;2023-01-16T04:18:44;8.38;67.52
76855;DHT22;66343;44.588;33.450;2023-01-16T04:21:30;8.33;67.78
76855;DHT22;66343;44.588;33.450;2023-01-16T04:24:35;8.29;68.08
76855;DHT22;66343;44.588;33.450;2023-01-16T04:27:19;8.36;67.58
76855;DHT22;66343;44.588;33.450;2023-01-16T04:30:03;8.39;67.50
76855;DHT22;66343;44.588;33.450;2023-01-16T04:32:54;8.45;67.45
76855;DHT22;66343;44.588;33.450;2023-01-16T04:35:37;8.44;67.33
76855;DHT22;66343;44.588;33.450;2023-01-16T04:38:25;8.43;67.62
76855;DHT22;66343;44.588;33.450;2023-01-16T04:41:20;8.38;67.63
76855;DHT22;66343;44.588;33.450;2023-01-16T04:44:28;8.34;67.55
76855;DHT22;66343;44.588;33.450;2023-01-16T04:47:21;8.31;67.68
76855;DHT22;66343;44.588;33.450;2023-01-16T04:50:18;8.35;67.55
76855;DHT22;66343;44.588;33.450;2023-01-16T04:53:00;8.38;67.53
76855;DHT22;66343;44.588;33.450;2023-01-16T04:55:46;8.41;67.39
76855;DHT22;66343;44.588;33.450;2023-01-16T04:58:29;8.43;67.61
76855;DHT22;66343;44.588;33.450;2023-01-16T05:01:16;8.36;68.17
76855;DHT22;66343;44.588;33.450;2023-01-16T05:04:09;8.36;67.99
76855;DHT22;66343;44.588;33.450;2023-01-16T05:07:06;8.37;67.89
76855;DHT22;66343;44.588;33.450;2023-01-16T05:10:00;8.45;67.70
76855;DHT22;66343;44.588;33.450;2023-01-16T05:12:50;8.51;67.33
76855;DHT22;66343;44.588;33.450;2023-01-16T05:15:41;8.51;67.25
76855;DHT22;66343;44.588;33.450;2023-01-16T05:18:29;8.51;67.28
76855;DHT22;66343;44.588;33.450;2023-01-16T05:21:23;8.53;67.04
76855;DHT22;66343;44.588;33.450;2023-01-16T05:24:09;8.52;66.92
76855;DHT22;66343;44.588;33.450;2023-01-16T05:26:52;8.56;66.63
76855;DHT22;66343;44.588;33.450;2023-01-16T05:29:35;8.55;66.43
76855;DHT22;66343;44.588;33.450;2023-01-16T05:32:24;8.58;65.63
76855;DHT22;66343;44.588;33.450;2023-01-16T05:35:10;8.58;64.37
76855;DHT22;66343;44.588;33.450;2023-01-16T05:37:58;8.59;63.24
76855;DHT22;66343;44.588;33.450;2023-01-16T05:40:49;8.62;62.73
76855;DHT22;66343;44.588;33.450;2023-01-16T05:43:20;8.65;62.19
76855;DHT22;66343;44.588;33.450;2023-01-16T05:49:00;8.71;61.01
76855;DHT22;66343;44.588;33.450;2023-01-16T05:51:50;8.68;60.62
76855;DHT22;66343;44.588;33.450;2023-01-16T05:54:43;8.68;60.72
76855;DHT22;66343;44.588;33.450;2023-01-16T05:57:35;8.73;60.90
76855;DHT22;66343;44.588;33.450;2023-01-16T06:00:30;8.70;60.86
76855;DHT22;66343;44.588;33.450;2023-01-16T06:02:58;8.73;60.44
76855;DHT22;66343;44.588;33.450;2023-01-16T06:05:31;8.77;60.51
76855;DHT22;66343;44.588;33.450;2023-01-16T06:08:22;8.88;59.80
76855;DHT22;66343;44.588;33.450;2023-01-16T06:11:07;8.91;59.31
76855;DHT22;66343;44.588;33.450;2023-01-16T06:13:53;8.94;59.31
76855;DHT22;66343;44.588;33.450;2023-01-16T06:16:26;8.94;58.64
76855;DHT22;66343;44.588;33.450;2023-01-16T06:18:58;8.97;58.54
76855;DHT22;66343;44.588;33.450;2023-01-16T06:21:56;8.96;57.80
76855;DHT22;66343;44.588;33.450;2023-01-16T06:24:34;8.97;57.89
76855;DHT22;66343;44.588;33.450;2023-01-16T06:27:31;9.05;58.13
76855;DHT22;66343;44.588;33.450;2023-01-16T06:30:21;9.09;58.35
76855;DHT22;66343;44.588;33.450;2023-01-16T06:32:55;9.14;58.52
76855;DHT22;66343;44.588;33.450;2023-01-16T06:35:29;9.10;58.38
76855;DHT22;66343;44.588;33.450;2023-01-16T06:38:01;9.09;58.50
76855;DHT22;66343;44.588;33.450;2023-01-16T06:40:40;9.08;58.64
76855;DHT22;66343;44.588;33.450;2023-01-16T06:43:10;9.12;58.76
76855;DHT22;66343;44.588;33.450;2023-01-16T06:45:40;9.10;58.61
76855;DHT22;66343;44.588;33.450;2023-01-16T06:48:11;9.09;58.32
76855;DHT22;66343;44.588;33.450;2023-01-16T06:51:02;9.12;57.59
76855;DHT22;66343;44.588;33.450;2023-01-16T06:53:52;9.09;57.81
76855;DHT22;66343;44.588;33.450;2023-01-16T06:56:42;9.12;57.71
76855;DHT22;66343;44.588;33.450;2023-01-16T06:59:27;9.19;57.80
76855;DHT22;66343;44.588;33.450;2023-01-16T07:02:15;9.31;57.36
76855;DHT22;66343;44.588;33.450;2023-01-16T07:04:58;9.44;56.39
76855;DHT22;66343;44.588;33.450;2023-01-16T07:07:41;9.46;56.45
76855;DHT22;66343;44.588;33.450;2023-01-16T07:10:27;9.53;56.13
76855;DHT22;66343;44.588;33.450;2023-01-16T07:13:23;9.46;56.77
76855;DHT22;66343;44.588;33.450;2023-01-16T07:15:56;9.47;56.35
76855;DHT22;66343;44.588;33.450;2023-01-16T07:18:57;9.46;56.52
76855;DHT22;66343;44.588;33.450;2023-01-16T07:22:01;9.40;57.97
76855;DHT22;66343;44.588;33.450;2023-01-16T07:25:16;9.40;59.17
76855;DHT22;66343;44.588;33.450;2023-01-16T07:28:01;9.49;59.53
76855;DHT22;66343;44.588;33.450;2023-01-16T07:30:47;9.52;59.32
76855;DHT22;66343;44.588;33.450;2023-01-16T07:33:33;9.50;59.73
76855;DHT22;66343;44.588;33.450;2023-01-16T07:36:18;9.47;59.47
76855;DHT22;66343;44.588;33.450;2023-01-16T07:39:14;9.48;59.32
76855;DHT22;66343;44.588;33.450;2023-01-16T07:42:12;9.50;58.66
76855;DHT22;66343;44.588;33.450;2023-01-16T07:44:40;9.48;58.53
76855;DHT22;66343;44.588;33.450;2023-01-16T07:47:08;9.39;59.00
76855;DHT22;66343;44.588;33.450;2023-01-16T07:49:38;9.44;59.07
76855;DHT22;66343;44.588;33.450;2023-01-16T07:52:07;9.51;59.17
76855;DHT22;66343;44.588;33.450;2023-01-16T07:54:42;9.51;58.94
76855;DHT22;66343;44.588;33.450;2023-01-16T07:57:13;9.52;58.57
76855;DHT22;66343;44.588;33.450;2023-01-16T07:59:44;9.55;58.32
76855;DHT22;66343;44.588;33.450;2023-01-16T08:02:41;9.60;58.24
76855;DHT22;66343;44.588;33.450;2023-01-16T08:05:25;9.67;58.52
76855;DHT22;66343;44.588;33.450;2023-01-16T08:08:13;9.66;58.64
76855;DHT22;66343;44.588;33.450;2023-01-16T08:11:00;9.61;58.65
76855;DHT22;66343;44.588;33.450;2023-01-16T08:14:09;9.66;58.69
76855;DHT22;66343;44.588;33.450;2023-01-16T08:16:51;9.54;58.70
76855;DHT22;66343;44.588;33.450;2023-01-16T08:19:22;9.53;59.02
76855;DHT22;66343;44.588;33.450;2023-01-16T08:22:15;9.47;59.35
76855;DHT22;66343;44.588;33.450;2023-01-16T08:24:57;9.37;60.02
76855;DHT22;66343;44.588;33.450;2023-01-16T08:27:50;9.39;60.55
76855;DHT22;66343;44.588;33.450;2023-01-16T08:30:45;9.40;59.85
76855;DHT22;66343;44.588;33.450;2023-01-16T08:33:44;9.45;60.13
76855;DHT22;66343;44.588;33.450;2023-01-16T08:36:36;9.56;59.61
76855;DHT22;66343;44.588;33.450;2023-01-16T08:39:11;9.57;59.64
76855;DHT22;66343;44.588;33.450;2023-01-16T08:42:06;9.62;60.10
76855;DHT22;66343;44.588;33.450;2023-01-16T08:45:19;9.60;59.57
76855;DHT22;66343;44.588;33.450;2023-01-16T08:48:25;9.59;59.67
76855;DHT22;66343;44.588;33.450;2023-01-16T08:51:30;9.56;59.74
76855;DHT22;66343;44.588;33.450;2023-01-16T08:54:13;9.57;59.71
76855;DHT22;66343;44.588;33.450;2023-01-16T08:57:02;9.60;59.72
76855;DHT22;66343;44.588;33.450;2023-01-16T08:59:49;9.66;59.32
76855;DHT22;66343;44.588;33.450;2023-01-16T09:02:38;9.64;59.38
76855;DHT22;66343;44.588;33.450;2023-01-16T09:05:30;9.64;59.71
76855;DHT22;66343;44.588;33.450;2023-01-16T09:08:07;9.75;59.72
76855;DHT22;66343;44.588;33.450;2023-01-16T09:11:00;9.72;59.83
76855;DHT22;66343;44.588;33.450;2023-01-16T09:14:08;9.85;59.64
76855;DHT22;66343;44.588;33.450;2023-01-16T09:16:59;9.93;59.11
76855;DHT22;66343;44.588;33.450;2023-01-16T09:19:42;9.99;58.92
76855;DHT22;66343;44.588;33.450;2023-01-16T09:22:30;10.00;58.69
76855;DHT22;66343;44.588;33.450;2023-01-16T09:25:16;10.04;58.69
76855;DHT22;66343;44.588;33.450;2023-01-16T09:28:04;10.04;58.27
76855;DHT22;66343;44.588;33.450;2023-01-16T09:30:50;10.07;58.25
76855;DHT22;66343;44.588;33.450;2023-01-16T09:33:37;9.98;58.04
76855;DHT22;66343;44.588;33.450;2023-01-16T09:36:30;10.04;58.45
76855;DHT22;66343;44.588;33.450;2023-01-16T09:39:25;10.20;57.19
76855;DHT22;66343;44.588;33.450;2023-01-16T09:45:48;10.35;55.44
76855;DHT22;66343;44.588;33.450;2023-01-16T09:48:35;10.22;55.16
76855;DHT22;66343;44.588;33.450;2023-01-16T09:51:39;10.24;56.07
76855;DHT22;66343;44.588;33.450;2023-01-16T09:54:25;10.28;56.17
76855;DHT22;66343;44.588;33.450;2023-01-16T09:57:28;10.41;56.52
76855;DHT22;66343;44.588;33.450;2023-01-16T10:00:20;10.49;56.32
76855;DHT22;66343;44.588;33.450;2023-01-16T10:02:51;10.58;55.39
76855;DHT22;66343;44.588;33.450;2023-01-16T10:05:50;10.55;54.57
76855;DHT22;66343;44.588;33.450;2023-01-16T10:09:16;10.58;54.97
76855;DHT22;66343;44.588;33.450;2023-01-16T10:12:04;10.57;55.37
76855;DHT22;66343;44.588;33.450;2023-01-16T10:14:45;10.60;54.04
76855;DHT22;66343;44.588;33.450;2023-01-16T10:27:57;10.68;55.29
76855;DHT22;66343;44.588;33.450;2023-01-16T10:31:04;10.68;55.51
76855;DHT22;66343;44.588;33.450;2023-01-16T10:36:48;10.73;55.81
76855;DHT22;66343;44.588;33.450;2023-01-16T10:39:44;10.65;56.03
76855;DHT22;66343;44.588;33.450;2023-01-16T10:42:33;10.60;56.05
76855;DHT22;66343;44.588;33.450;2023-01-16T10:45:48;10.59;56.26
76855;DHT22;66343;44.588;33.450;2023-01-16T10:49:09;10.62;56.93
76855;DHT22;66343;44.588;33.450;2023-01-16T10:52:22;10.59;56.82
76855;DHT22;66343;44.588;33.450;2023-01-16T10:55:18;10.64;57.10
76855;DHT22;66343;44.588;33.450;2023-01-16T10:58:32;10.67;56.90
76855;DHT22;66343;44.588;33.450;2023-01-16T11:01:27;10.79;56.32
76855;DHT22;66343;44.588;33.450;2023-01-16T11:03:59;10.80;56.55
76855;DHT22;66343;44.588;33.450;2023-01-16T11:06:34;10.77;57.06
76855;DHT22;66343;44.588;33.450;2023-01-16T11:09:23;10.66;57.64
76855;DHT22;66343;44.588;33.450;2023-01-16T11:12:28;10.80;57.12
76855;DHT22;66343;44.588;33.450;2023-01-16T11:15:33;10.88;55.94
76855;DHT22;66343;44.588;33.450;2023-01-16T11:18:34;10.94;55.81
76855;DHT22;66343;44.588;33.450;2023-01-16T11:21:32;10.97;55.88
76855;DHT22;66343;44.588;33.450;2023-01-16T11:24:29;11.02;56.13
76855;DHT22;66343;44.588;33.450;2023-01-16T11:27:20;10.95;55.93
76855;DHT22;66343;44.588;33.450;2023-01-16T11:30:15;11.12;55.86
76855;DHT22;66343;44.588;33.450;2023-01-16T11:33:17;12.19;51.97
76855;DHT22;66343;44.588;33.450;2023-01-16T11:36:16;11.85;52.85
76855;DHT22;66343;44.588;33.450;2023-01-16T11:38:48;11.73;53.71
76855;DHT22;66343;44.588;33.450;2023-01-16T11:41:19;11.63;53.68
76855;DHT22;66343;44.588;33.450;2023-01-16T11:46:59;11.72;54.02
76855;DHT22;66343;44.588;33.450;2023-01-16T11:49:39;11.86;53.31
76855;DHT22;66343;44.588;33.450;2023-01-16T11:52:37;12.38;51.88
76855;DHT22;66343;44.588;33.450;2023-01-16T11:55:41;12.93;49.88
76855;DHT22;66343;44.588;33.450;2023-01-16T12:08:46;15.66;41.20
76855;DHT22;66343;44.588;33.450;2023-01-16T12:14:52;17.76;36.45
76855;DHT22;66343;44.588;33.450;2023-01-16T12:30:25;21.25;27.98
76855;DHT22;66343;44.588;33.450;2023-01-16T12:33:58;20.53;28.75
76855;DHT22;66343;44.588;33.450;2023-01-16T12:49:42;19.85;30.60
76855;DHT22;66343;44.588;33.450;2023-01-16T12:53:00;19.68;30.67
76855;DHT22;66343;44.588;33.450;2023-01-16T12:58:53;19.29;31.45
76855;DHT22;66343;44.588;33.450;2023-01-16T13:01:49;18.82;32.65
76855;DHT22;66343;44.588;33.450;2023-01-16T13:04:49;18.40;33.40
76855;DHT22;66343;44.588;33.450;2023-01-16T13:07:22;17.50;35.35
76855;DHT22;66343;44.588;33.450;2023-01-16T13:12:51;15.61;39.94
76855;DHT22;66343;44.588;33.450;2023-01-16T13:16:17;14.88;41.83
76855;DHT22;66343;44.588;33.450;2023-01-16T13:19:13;14.30;43.71
76855;DHT22;66343;44.588;33.450;2023-01-16T13:22:25;13.69;45.35
76855;DHT22;66343;44.588;33.450;2023-01-16T13:25:34;13.41;46.42
76855;DHT22;66343;44.588;33.450;2023-01-16T13:28:49;13.21;47.20
76855;DHT22;66343;44.588;33.450;2023-01-16T13:31:32;13.03;48.16
76855;DHT22;66343;44.588;33.450;2023-01-16T13:34:08;12.90;48.02
76855;DHT22;66343;44.588;33.450;2023-01-16T13:43:41;14.17;44.76
76855;DHT22;66343;44.588;33.450;2023-01-16T13:46:44;14.53;43.90
76855;DHT22;66343;44.588;33.450;2023-01-16T13:49:32;14.64;43.39
76855;DHT22;66343;44.588;33.450;2023-01-16T13:52:43;14.39;43.31
76855;DHT22;66343;44.588;33.450;2023-01-16T13:55:36;14.19;44.21
76855;DHT22;66343;44.588;33.450;2023-01-16T13:58:25;14.08;44.57
76855;DHT22;66343;44.588;33.450;2023-01-16T14:11:03;13.07;47.69
76855;DHT22;66343;44.588;33.450;2023-01-16T14:14:46;12.74;48.89
76855;DHT22;66343;44.588;33.450;2023-01-16T14:18:15;12.46;50.05
76855;DHT22;66343;44.588;33.450;2023-01-16T14:24:15;12.28;50.37
76855;DHT22;66343;44.588;33.450;2023-01-16T14:26:52;12.01;51.27
76855;DHT22;66343;44.588;33.450;2023-01-16T14:29:32;11.90;51.68
76855;DHT22;66343;44.588;33.450;2023-01-16T14:32:31;11.79;52.08
76855;DHT22;66343;44.588;33.450;2023-01-16T14:37:39;11.60;53.20
76855;DHT22;66343;44.588;33.450;2023-01-16T14:43:12;11.47;53.12
76855;DHT22;66343;44.588;33.450;2023-01-16T14:49:43;11.25;54.23
76855;DHT22;66343;44.588;33.450;2023-01-16T14:53:17;11.15;54.62
76855;DHT22;66343;44.588;33.450;2023-01-16T14:56:35;11.08;54.70
76855;DHT22;66343;44.588;33.450;2023-01-16T15:00:02;11.00;54.96
76855;DHT22;66343;44.588;33.450;2023-01-16T15:02:40;10.92;55.26
76855;DHT22;66343;44.588;33.450;2023-01-16T15:05:21;10.88;55.18
76855;DHT22;66343;44.588;33.450;2023-01-16T15:07:59;10.89;54.97
76855;DHT22;66343;44.588;33.450;2023-01-16T15:10:47;10.88;55.11
76855;DHT22;66343;44.588;33.450;2023-01-16T15:14:14;10.77;55.45
76855;DHT22;66343;44.588;33.450;2023-01-16T15:17:35;10.71;55.53
76855;DHT22;66343;44.588;33.450;2023-01-16T15:20:51;10.66;55.48
76855;DHT22;66343;44.588;33.450;2023-01-16T15:23:59;10.60;55.80
76855;DHT22;66343;44.588;33.450;2023-01-16T15:29:55;10.52;56.11
76855;DHT22;66343;44.588;33.450;2023-01-16T15:35:39;10.46;56.21
76855;DHT22;66343;44.588;33.450;2023-01-16T15:38:35;10.48;56.23
76855;DHT22;66343;44.588;33.450;2023-01-16T15:41:03;10.45;56.25
76855;DHT22;66343;44.588;33.450;2023-01-16T15:43:48;10.48;56.35
76855;DHT22;66343;44.588;33.450;2023-01-16T15:50:12;10.51;56.00
76855;DHT22;66343;44.588;33.450;2023-01-16T15:53:11;10.55;55.76
76855;DHT22;66343;44.588;33.450;2023-01-16T15:56:33;10.53;55.94
76855;DHT22;66343;44.588;33.450;2023-01-16T15:59:30;10.54;55.68
76855;DHT22;66343;44.588;33.450;2023-01-16T16:02:24;10.55;55.67
76855;DHT22;66343;44.588;33.450;2023-01-16T16:05:01;10.56;55.42
76855;DHT22;66343;44.588;33.450;2023-01-16T16:07:34;10.53;55.33
76855;DHT22;66343;44.588;33.450;2023-01-16T16:10:19;10.56;55.26
76855;DHT22;66343;44.588;33.450;2023-01-16T16:13:19;10.60;54.81
76855;DHT22;66343;44.588;33.450;2023-01-16T16:16:24;10.58;54.94
76855;DHT22;66343;44.588;33.450;2023-01-16T16:19:35;10.56;54.82
76855;DHT22;66343;44.588;33.450;2023-01-16T16:22:28;10.55;54.72
76855;DHT22;66343;44.588;33.450;2023-01-16T16:28:42;10.51;54.76
76855;DHT22;66343;44.588;33.450;2023-01-16T16:31:34;10.53;54.56
76855;DHT22;66343;44.588;33.450;2023-01-16T16:34:26;10.44;54.79
76855;DHT22;66343;44.588;33.450;2023-01-16T16:37:12;10.41;54.94
76855;DHT22;66343;44.588;33.450;2023-01-16T16:40:02;10.36;55.24
76855;DHT22;66343;44.588;33.450;2023-01-16T16:45:30;10.27;55.61
76855;DHT22;66343;44.588;33.450;2023-01-16T16:51:19;10.22;55.76
76855;DHT22;66343;44.588;33.450;2023-01-16T16:54:14;10.14;56.35
76855;DHT22;66343;44.588;33.450;2023-01-16T16:57:02;10.18;56.45
76855;DHT22;66343;44.588;33.450;2023-01-16T16:59:46;10.21;56.27
76855;DHT22;66343;44.588;33.450;2023-01-16T17:02:46;10.22;56.33
76855;DHT22;66343;44.588;33.450;2023-01-16T17:05:36;10.13;56.81
76855;DHT22;66343;44.588;33.450;2023-01-16T17:08:30;10.09;56.77
76855;DHT22;66343;44.588;33.450;2023-01-16T17:11:23;10.06;56.90
76855;DHT22;66343;44.588;33.450;2023-01-16T17:14:15;10.12;56.80
76855;DHT22;66343;44.588;33.450;2023-01-16T17:16:48;10.14;56.77
76855;DHT22;66343;44.588;33.450;2023-01-16T17:19:19;10.14;56.65
76855;DHT22;66343;44.588;33.450;2023-01-16T17:21:56;10.22;56.22
76855;DHT22;66343;44.588;33.450;2023-01-16T17:24:24;10.22;56.25
76855;DHT22;66343;44.588;33.450;2023-01-16T17:26:52;10.23;56.09
76855;DHT22;66343;44.588;33.450;2023-01-16T17:29:20;10.22;55.97
76855;DHT22;66343;44.588;33.450;2023-01-16T17:31:51;10.11;56.21
76855;DHT22;66343;44.588;33.450;2023-01-16T17:34:25;10.08;56.44
76855;DHT22;66343;44.588;33.450;2023-01-16T17:37:13;9.98;56.70
76855;DHT22;66343;44.588;33.450;2023-01-16T17:40:08;9.93;56.78
76855;DHT22;66343;44.588;33.450;2023-01-16T17:42:53;9.80;57.40
76855;DHT22;66343;44.588;33.450;2023-01-16T17:45:55;9.71;57.77
76855;DHT22;66343;44.588;33.450;2023-01-16T17:48:46;9.65;58.00
76855;DHT22;66343;44.588;33.450;2023-01-16T17:51:37;9.62;57.90
76855;DHT22;66343;44.588;33.450;2023-01-16T17:54:32;9.60;57.93
76855;DHT22;66343;44.588;33.450;2023-01-16T17:57:43;9.52;58.25
76855;DHT22;66343;44.588;33.450;2023-01-16T18:00:37;9.55;57.99
76855;DHT22;66343;44.588;33.450;2023-01-16T18:03:31;9.40;58.47
76855;DHT22;66343;44.588;33.450;2023-01-16T18:06:26;9.37;58.58
76855;DHT22;66343;44.588;33.450;2023-01-16T18:09:11;9.42;58.39
76855;DHT22;66343;44.588;33.450;2023-01-16T18:11:57;9.33;58.90
76855;DHT22;66343;44.588;33.450;2023-01-16T18:15:01;9.32;59.07
76855;DHT22;66343;44.588;33.450;2023-01-16T18:18:05;9.35;58.84
76855;DHT22;66343;44.588;33.450;2023-01-16T18:20:48;9.32;59.35
76855;DHT22;66343;44.588;33.450;2023-01-16T18:23:37;9.33;58.61
76855;DHT22;66343;44.588;33.450;2023-01-16T18:26:31;9.39;58.47
76855;DHT22;66343;44.588;33.450;2023-01-16T18:29:20;9.39;59.00
76855;DHT22;66343;44.588;33.450;2023-01-16T18:31:52;9.31;59.23
76855;DHT22;66343;44.588;33.450;2023-01-16T18:34:59;9.35;58.67
76855;DHT22;66343;44.588;33.450;2023-01-16T18:37:51;9.36;58.89
76855;DHT22;66343;44.588;33.450;2023-01-16T18:40:54;9.38;58.99
76855;DHT22;66343;44.588;33.450;2023-01-16T18:43:56;9.24;59.23
76855;DHT22;66343;44.588;33.450;2023-01-16T18:46:57;9.03;59.91
76855;DHT22;66343;44.588;33.450;2023-01-16T18:50:02;8.89;60.47
76855;DHT22;66343;44.588;33.450;2023-01-16T18:53:06;8.77;60.37
76855;DHT22;66343;44.588;33.450;2023-01-16T18:56:16;8.73;61.15
76855;DHT22;66343;44.588;33.450;2023-01-16T18:59:30;8.67;60.90
76855;DHT22;66343;44.588;33.450;2023-01-16T19:02:46;8.73;61.34
76855;DHT22;66343;44.588;33.450;2023-01-16T19:05:37;8.85;60.95
76855;DHT22;66343;44.588;33.450;2023-01-16T19:08:29;8.90;60.67
76855;DHT22;66343;44.588;33.450;2023-01-16T19:11:01;8.88;60.50
76855;DHT22;66343;44.588;33.450;2023-01-16T19:13:30;8.85;60.47
76855;DHT22;66343;44.588;33.450;2023-01-16T19:16:07;8.86;60.44
76855;DHT22;66343;44.588;33.450;2023-01-16T19:18:59;8.78;61.07
76855;DHT22;66343;44.588;33.450;2023-01-16T19:21:30;8.78;61.70
76855;DHT22;66343;44.588;33.450;2023-01-16T19:24:06;8.81;63.16
76855;DHT22;66343;44.588;33.450;2023-01-16T19:26:39;8.87;63.39
76855;DHT22;66343;44.588;33.450;2023-01-16T19:29:19;8.93;64.89
76855;DHT22;66343;44.588;33.450;2023-01-16T19:31:49;9.04;65.01
76855;DHT22;66343;44.588;33.450;2023-01-16T19:34:43;9.12;64.09
76855;DHT22;66343;44.588;33.450;2023-01-16T19:37:40;9.12;64.15
76855;DHT22;66343;44.588;33.450;2023-01-16T19:40:37;9.20;64.15
76855;DHT22;66343;44.588;33.450;2023-01-16T19:43:32;9.24;64.99
76855;DHT22;66343;44.588;33.450;2023-01-16T19:46:44;9.29;67.00
76855;DHT22;66343;44.588;33.450;2023-01-16T19:49:43;9.32;67.81
76855;DHT22;66343;44.588;33.450;2023-01-16T19:52:37;9.30;69.17
76855;DHT22;66343;44.588;33.450;2023-01-16T19:55:10;9.29;70.42
76855;DHT22;66343;44.588;33.450;2023-01-16T19:57:45;9.29;70.76
76855;DHT22;66343;44.588;33.450;2023-01-16T20:00:37;9.33;71.08
76855;DHT22;66343;44.588;33.450;2023-01-16T20:03:08;9.31;71.19
76855;DHT22;66343;44.588;33.450;2023-01-16T20:05:35;9.29;71.29
76855;DHT22;66343;44.588;33.450;2023-01-16T20:08:06;9.30;71.16
76855;DHT22;66343;44.588;33.450;2023-01-16T20:10:34;9.31;70.68
76855;DHT22;66343;44.588;33.450;2023-01-16T20:13:07;9.31;70.34